createdAt,value
2022-12-24T00:01:03.127Z,13.61
2022-12-24T00:03:30.224Z,13.63
2022-12-24T00:05:57.183Z,13.61
2022-12-24T00:08:24.286Z,13.62
2022-12-24T00:10:52.738Z,13.61
2022-12-24T00:13:20.230Z,13.62
2022-12-24T00:15:47.275Z,13.61
2022-12-24T00:18:14.315Z,13.62
2022-12-24T00:20:41.459Z,13.62
2022-12-24T00:23:08.450Z,13.64
2022-12-24T00:25:35.342Z,13.65
2022-12-24T00:28:02.247Z,13.62
2022-12-24T00:30:29.427Z,13.62
2022-12-24T00:32:56.487Z,13.61
2022-12-24T00:35:23.499Z,13.63
2022-12-24T00:37:50.662Z,13.61
2022-12-24T00:40:18.273Z,13.60
2022-12-24T00:42:45.227Z,13.60
2022-12-24T00:45:12.618Z,13.59
2022-12-24T00:47:39.485Z,13.57
2022-12-24T00:50:07.113Z,13.56
2022-12-24T00:52:34.120Z,13.52
2022-12-24T00:55:01.038Z,13.50
2022-12-24T00:57:27.994Z,13.46
2022-12-24T00:59:54.902Z,13.48
2022-12-24T01:02:22.185Z,13.50
2022-12-24T01:05:07.969Z,13.47
2022-12-24T01:07:35.744Z,13.48
2022-12-24T01:10:02.746Z,13.45
2022-12-24T01:12:29.833Z,13.44
2022-12-24T01:14:56.709Z,13.43
2022-12-24T01:17:23.703Z,13.41
2022-12-24T01:19:50.893Z,13.38
2022-12-24T01:22:17.857Z,13.39
2022-12-24T01:24:44.817Z,13.39
2022-12-24T01:27:11.748Z,13.40
2022-12-24T01:29:38.627Z,13.40
2022-12-24T01:32:05.709Z,13.44
2022-12-24T01:34:32.610Z,13.47
2022-12-24T01:36:59.529Z,13.39
2022-12-24T01:39:26.453Z,13.40
2022-12-24T01:42:11.726Z,13.42
2022-12-24T01:44:43.597Z,13.40
2022-12-24T01:47:21.990Z,13.39
2022-12-24T01:49:52.977Z,13.38
2022-12-24T01:52:31.474Z,13.40
2022-12-24T01:55:01.498Z,13.38
2022-12-24T01:57:32.227Z,13.36
2022-12-24T02:00:01.385Z,13.36
2022-12-24T02:02:29.133Z,13.32
2022-12-24T02:05:06.726Z,13.32
2022-12-24T02:07:33.803Z,13.33
2022-12-24T02:10:02.419Z,13.36
2022-12-24T02:12:31.323Z,13.34
2022-12-24T02:14:58.587Z,13.31
2022-12-24T02:17:28.410Z,13.30
2022-12-24T02:20:32.419Z,13.30
2022-12-24T02:23:38.327Z,13.32
2022-12-24T02:26:46.406Z,13.28
2022-12-24T02:29:44.075Z,13.25
2022-12-24T02:32:24.124Z,13.22
2022-12-24T02:35:03.040Z,13.26
2022-12-24T02:37:40.400Z,13.24
2022-12-24T02:40:16.053Z,13.23
2022-12-24T02:42:46.029Z,13.24
2022-12-24T02:45:16.494Z,13.25
2022-12-24T02:47:45.336Z,13.24
2022-12-24T02:50:15.403Z,13.24
2022-12-24T02:52:45.132Z,13.27
2022-12-24T02:55:11.990Z,13.30
2022-12-24T02:58:07.059Z,13.28
2022-12-24T03:01:10.788Z,13.30
2022-12-24T03:04:07.804Z,13.29
2022-12-24T03:06:45.019Z,13.28
2022-12-24T03:09:18.739Z,13.30
2022-12-24T03:11:53.613Z,13.33
2022-12-24T03:14:21.913Z,13.32
2022-12-24T03:16:49.097Z,13.30
2022-12-24T03:19:16.707Z,13.29
2022-12-24T03:21:44.679Z,13.29
2022-12-24T03:24:11.960Z,13.29
2022-12-24T03:26:39.343Z,13.29
2022-12-24T03:29:07.939Z,13.29
2022-12-24T03:31:50.142Z,13.27
2022-12-24T03:34:17.970Z,13.26
2022-12-24T03:36:45.771Z,13.27
2022-12-24T03:39:12.741Z,13.26
2022-12-24T03:41:39.692Z,13.23
2022-12-24T03:44:06.561Z,13.21
2022-12-24T03:46:33.566Z,13.22
2022-12-24T03:49:00.501Z,13.24
2022-12-24T03:51:28.568Z,13.21
2022-12-24T03:53:56.721Z,13.23
2022-12-24T03:56:24.617Z,13.22
2022-12-24T03:58:51.587Z,13.21
2022-12-24T04:01:18.913Z,13.20
2022-12-24T04:03:46.116Z,13.15
2022-12-24T04:06:16.133Z,13.15
2022-12-24T04:08:43.043Z,13.17
2022-12-24T04:11:11.733Z,13.18
2022-12-24T04:13:38.729Z,13.17
2022-12-24T04:16:08.612Z,13.19
2022-12-24T04:18:36.726Z,13.19
2022-12-24T04:21:03.907Z,13.18
2022-12-24T04:23:32.233Z,13.19
2022-12-24T04:26:02.945Z,13.18
2022-12-24T04:28:30.635Z,13.18
2022-12-24T04:31:03.823Z,13.18
2022-12-24T04:33:30.770Z,13.19
2022-12-24T04:35:59.048Z,13.20
2022-12-24T04:38:26.195Z,13.21
2022-12-24T04:41:15.999Z,13.21
2022-12-24T04:43:47.872Z,13.20
2022-12-24T04:46:18.812Z,13.20
2022-12-24T04:48:47.359Z,13.18
2022-12-24T04:51:15.177Z,13.22
2022-12-24T04:53:42.965Z,13.21
2022-12-24T04:56:17.874Z,13.25
2022-12-24T04:58:45.126Z,13.24
2022-12-24T05:01:14.485Z,13.23
2022-12-24T05:03:42.209Z,13.24
2022-12-24T05:06:13.924Z,13.23
2022-12-24T05:08:41.041Z,13.22
2022-12-24T05:11:08.237Z,13.22
2022-12-24T05:13:42.526Z,13.24
2022-12-24T05:16:13.598Z,13.21
2022-12-24T05:18:40.837Z,13.22
2022-12-24T05:21:13.308Z,13.20
2022-12-24T05:23:58.931Z,13.20
2022-12-24T05:26:30.613Z,13.16
2022-12-24T05:28:58.931Z,13.17
2022-12-24T05:31:27.503Z,13.17
2022-12-24T05:33:55.041Z,13.20
2022-12-24T05:36:23.069Z,13.21
2022-12-24T05:38:50.569Z,13.20
2022-12-24T05:41:17.730Z,13.23
2022-12-24T05:43:44.871Z,13.23
2022-12-24T05:46:14.259Z,13.25
2022-12-24T05:48:41.763Z,13.27
2022-12-24T05:51:11.517Z,13.28
2022-12-24T05:53:38.583Z,13.29
2022-12-24T05:56:09.328Z,13.32
2022-12-24T05:58:36.771Z,13.30
2022-12-24T06:01:04.674Z,13.31
2022-12-24T06:03:32.436Z,13.32
2022-12-24T06:06:07.887Z,13.31
2022-12-24T06:08:35.495Z,13.30
2022-12-24T06:11:05.003Z,13.32
2022-12-24T06:13:32.241Z,13.31
2022-12-24T06:16:00.913Z,13.30
2022-12-24T06:18:29.896Z,13.30
2022-12-24T06:20:58.066Z,13.32
2022-12-24T06:23:25.522Z,13.33
2022-12-24T06:25:52.910Z,13.29
2022-12-24T06:28:19.835Z,13.27
2022-12-24T06:30:48.299Z,13.27
2022-12-24T06:33:15.684Z,13.25
2022-12-24T06:35:42.769Z,13.25
2022-12-24T06:38:09.674Z,13.25
2022-12-24T06:40:38.550Z,13.25
2022-12-24T06:43:05.699Z,13.24
2022-12-24T06:45:32.635Z,13.25
2022-12-24T06:48:00.112Z,13.24
2022-12-24T06:50:27.013Z,13.23
2022-12-24T06:52:54.024Z,13.24
2022-12-24T06:55:21.176Z,13.25
2022-12-24T06:57:48.072Z,13.24
2022-12-24T07:00:15.526Z,13.25
2022-12-24T07:02:45.958Z,13.26
2022-12-24T07:05:13.824Z,13.29
2022-12-24T07:07:42.453Z,13.29
2022-12-24T07:10:12.301Z,13.25
2022-12-24T07:12:39.209Z,13.24
2022-12-24T07:15:06.597Z,13.24
2022-12-24T07:17:33.661Z,13.25
2022-12-24T07:20:00.721Z,13.24
2022-12-24T07:22:27.637Z,13.27
2022-12-24T07:24:54.487Z,13.24
2022-12-24T07:27:21.454Z,13.27
2022-12-24T07:29:48.599Z,13.28
2022-12-24T07:32:15.688Z,13.26
2022-12-24T07:34:42.725Z,13.25
2022-12-24T07:37:09.716Z,13.23
2022-12-24T07:39:36.649Z,13.24
2022-12-24T07:42:05.783Z,13.27
2022-12-24T07:44:32.672Z,13.26
2022-12-24T07:46:59.576Z,13.27
2022-12-24T07:49:26.552Z,13.25
2022-12-24T07:51:53.413Z,13.25
2022-12-24T07:54:20.349Z,13.25
2022-12-24T07:56:47.273Z,13.23
2022-12-24T07:59:14.751Z,13.23
2022-12-24T08:01:42.042Z,13.17
2022-12-24T08:04:09.114Z,13.19
2022-12-24T08:06:36.018Z,13.19
2022-12-24T08:09:03.229Z,13.17
2022-12-24T08:11:30.255Z,13.13
2022-12-24T08:13:57.232Z,13.10
2022-12-24T08:16:24.167Z,13.11
2022-12-24T08:18:51.165Z,13.13
2022-12-24T08:21:18.227Z,13.10
2022-12-24T08:23:47.124Z,13.09
2022-12-24T08:26:15.454Z,13.05
2022-12-24T08:28:42.769Z,13.06
2022-12-24T08:31:09.880Z,13.05
2022-12-24T08:33:36.835Z,13.05
2022-12-24T08:36:04.033Z,12.99
2022-12-24T08:38:30.892Z,12.99
2022-12-24T08:40:57.854Z,12.89
2022-12-24T08:43:25.841Z,12.82
2022-12-24T08:45:53.593Z,12.84
2022-12-24T08:48:20.643Z,12.87
2022-12-24T08:50:47.545Z,12.83
2022-12-24T08:53:14.531Z,12.85
2022-12-24T08:55:41.582Z,12.84
2022-12-24T08:58:08.493Z,12.85
2022-12-24T09:00:35.413Z,12.80
2022-12-24T09:03:02.489Z,12.79
2022-12-24T09:05:29.472Z,12.84
2022-12-24T09:07:56.419Z,12.82
2022-12-24T09:10:23.764Z,12.75
2022-12-24T09:12:51.406Z,12.73
2022-12-24T09:15:19.241Z,12.78
2022-12-24T09:17:46.171Z,12.80
2022-12-24T09:20:13.345Z,12.75
2022-12-24T09:22:40.483Z,12.69
2022-12-24T09:25:08.988Z,12.72
2022-12-24T09:27:36.026Z,12.71
2022-12-24T09:30:03.084Z,12.72
2022-12-24T09:32:30.141Z,12.72
2022-12-24T09:34:57.034Z,12.77
2022-12-24T09:37:23.970Z,12.74
2022-12-24T09:39:50.985Z,12.69
2022-12-24T09:42:29.484Z,12.71
2022-12-24T09:45:01.601Z,12.68
2022-12-24T09:47:56.118Z,12.66
2022-12-24T09:50:42.757Z,12.68
2022-12-24T09:53:21.094Z,12.68
2022-12-24T09:55:52.338Z,12.69
2022-12-24T09:58:40.119Z,12.68
2022-12-24T10:01:11.254Z,12.69
2022-12-24T10:03:38.289Z,12.68
2022-12-24T10:06:15.948Z,12.69
2022-12-24T10:09:10.907Z,12.67
2022-12-24T10:11:48.538Z,12.62
2022-12-24T10:14:33.627Z,12.63
2022-12-24T10:17:18.687Z,12.69
2022-12-24T10:19:57.341Z,12.71
2022-12-24T10:22:41.282Z,12.68
2022-12-24T10:25:25.472Z,12.64
2022-12-24T10:27:55.116Z,12.64
2022-12-24T10:30:23.514Z,12.60
2022-12-24T10:32:52.629Z,12.68
2022-12-24T10:35:28.059Z,12.68
2022-12-24T10:37:56.830Z,12.65
2022-12-24T10:40:27.394Z,12.68
2022-12-24T10:42:54.320Z,12.70
2022-12-24T10:45:22.603Z,12.68
2022-12-24T10:47:53.280Z,12.71
2022-12-24T10:50:35.118Z,12.69
2022-12-24T10:53:12.944Z,12.68
2022-12-24T10:55:39.895Z,12.71
2022-12-24T10:58:16.718Z,12.71
2022-12-24T11:00:50.791Z,12.68
2022-12-24T11:03:24.518Z,12.68
2022-12-24T11:06:11.736Z,12.75
2022-12-24T11:08:41.433Z,12.71
2022-12-24T11:11:20.508Z,12.70
2022-12-24T11:13:50.391Z,12.67
2022-12-24T11:16:30.003Z,12.69
2022-12-24T11:18:59.310Z,12.71
2022-12-24T11:21:31.718Z,12.74
2022-12-24T11:24:27.913Z,12.70
2022-12-24T11:26:55.053Z,12.70
2022-12-24T11:29:26.710Z,12.73
2022-12-24T11:32:15.008Z,12.78
2022-12-24T11:34:44.038Z,12.75
2022-12-24T11:37:22.331Z,12.73
2022-12-24T11:40:01.704Z,12.75
2022-12-24T11:42:38.298Z,12.77
2022-12-24T11:45:09.003Z,12.75
2022-12-24T11:47:40.665Z,12.80
2022-12-24T11:50:30.265Z,12.80
2022-12-24T11:53:02.840Z,12.79
2022-12-24T11:55:53.600Z,12.75
2022-12-24T11:58:26.435Z,12.75
2022-12-24T12:01:15.525Z,12.80
2022-12-24T12:03:47.594Z,12.80
2022-12-24T12:06:30.156Z,12.80
2022-12-24T12:09:02.104Z,12.78
2022-12-24T12:11:29.650Z,12.79
2022-12-24T12:13:59.267Z,12.81
2022-12-24T12:17:02.130Z,12.85
2022-12-24T12:19:42.500Z,12.85
2022-12-24T12:22:27.352Z,12.88
2022-12-24T12:24:56.435Z,12.89
2022-12-24T12:27:53.409Z,12.87
2022-12-24T12:30:22.110Z,12.91
2022-12-24T12:32:51.790Z,12.94
2022-12-24T12:35:25.681Z,12.94
2022-12-24T12:38:04.874Z,12.93
2022-12-24T12:41:09.120Z,12.93
2022-12-24T12:44:10.627Z,12.96
2022-12-24T12:46:52.726Z,12.97
2022-12-24T12:49:40.717Z,12.97
2022-12-24T12:52:48.347Z,12.97
2022-12-24T12:55:37.190Z,12.96
2022-12-24T12:58:10.890Z,12.95
2022-12-24T13:00:39.893Z,12.96
2022-12-24T13:03:31.700Z,12.98
2022-12-24T13:06:37.019Z,12.96
2022-12-24T13:09:32.860Z,12.97
2022-12-24T13:12:08.580Z,12.97
2022-12-24T13:14:53.416Z,12.95
2022-12-24T13:17:45.447Z,12.97
2022-12-24T13:20:24.000Z,13.00
2022-12-24T13:22:56.642Z,13.01
2022-12-24T13:25:37.838Z,13.03
2022-12-24T13:28:20.928Z,13.04
2022-12-24T13:30:49.815Z,13.05
2022-12-24T13:33:38.327Z,13.06
2022-12-24T13:36:14.516Z,13.08
2022-12-24T13:38:48.872Z,13.06
2022-12-24T13:41:41.192Z,13.08
2022-12-24T13:44:13.302Z,13.07
2022-12-24T13:47:05.655Z,13.09
2022-12-24T13:49:43.772Z,13.10
2022-12-24T13:52:14.756Z,13.10
2022-12-24T13:55:00.370Z,13.10
2022-12-24T13:57:36.353Z,13.10
2022-12-24T14:00:06.561Z,13.09
2022-12-24T14:02:37.732Z,13.09
2022-12-24T14:05:08.806Z,13.08
2022-12-24T14:07:36.647Z,13.08
2022-12-24T14:10:06.592Z,13.08
2022-12-24T14:12:45.901Z,13.09
2022-12-24T14:16:00.569Z,13.10
2022-12-24T14:18:28.433Z,13.11
2022-12-24T14:20:57.901Z,13.11
2022-12-24T14:23:50.024Z,13.12
2022-12-24T14:26:23.467Z,13.15
2022-12-24T14:28:59.782Z,13.15
2022-12-24T14:31:26.967Z,13.13
2022-12-24T14:34:11.598Z,13.14
2022-12-24T14:36:39.084Z,13.15
2022-12-24T14:39:11.849Z,13.15
2022-12-24T14:42:03.202Z,13.15
2022-12-24T14:44:57.604Z,13.14
2022-12-24T14:47:38.177Z,13.14
2022-12-24T14:50:18.737Z,13.13
2022-12-24T14:53:06.350Z,13.16
2022-12-24T14:55:41.158Z,13.16
2022-12-24T14:58:32.505Z,13.17
2022-12-24T15:01:01.710Z,13.17
2022-12-24T15:03:31.149Z,13.16
2022-12-24T15:06:00.785Z,13.17
2022-12-24T15:08:30.973Z,13.16
2022-12-24T15:11:02.174Z,13.16
2022-12-24T15:13:36.708Z,13.18
2022-12-24T15:16:06.431Z,13.19
2022-12-24T15:18:35.064Z,13.19
2022-12-24T15:21:07.703Z,13.21
2022-12-24T15:23:37.215Z,13.22
2022-12-24T15:26:29.749Z,13.22
2022-12-24T15:29:03.298Z,13.21
2022-12-24T15:31:31.676Z,13.21
2022-12-24T15:34:02.181Z,13.20
2022-12-24T15:36:37.056Z,13.18
2022-12-24T15:39:07.441Z,13.18
2022-12-24T15:42:00.448Z,13.17
2022-12-24T15:44:30.130Z,13.12
2022-12-24T15:47:00.812Z,13.16
2022-12-24T15:49:33.077Z,13.17
2022-12-24T15:52:09.147Z,13.17
2022-12-24T15:54:36.367Z,13.17
2022-12-24T15:57:23.728Z,13.17
2022-12-24T15:59:58.277Z,13.16
2022-12-24T16:02:41.286Z,13.15
2022-12-24T16:05:26.548Z,13.16
2022-12-24T16:08:07.872Z,13.14
2022-12-24T16:10:43.188Z,13.13
2022-12-24T16:13:13.206Z,13.11
2022-12-24T16:15:55.260Z,13.09
2022-12-24T16:18:37.038Z,13.06
2022-12-24T16:21:05.502Z,13.07
2022-12-24T16:23:38.085Z,13.06
2022-12-24T16:26:05.168Z,13.05
2022-12-24T16:28:32.917Z,13.03
2022-12-24T16:30:59.990Z,13.01
2022-12-24T16:33:27.108Z,13.05
2022-12-24T16:35:54.117Z,13.04
2022-12-24T16:38:21.394Z,13.03
2022-12-24T16:40:48.412Z,13.00
2022-12-24T16:43:33.799Z,12.99
2022-12-24T16:46:05.742Z,12.99
2022-12-24T16:48:36.470Z,13.00
2022-12-24T16:51:03.512Z,12.99
2022-12-24T16:53:30.424Z,12.99
2022-12-24T16:55:57.349Z,13.00
2022-12-24T16:58:24.253Z,12.99
2022-12-24T17:00:51.147Z,12.99
2022-12-24T17:03:18.192Z,13.01
2022-12-24T17:05:45.392Z,13.01
2022-12-24T17:08:13.176Z,12.98
2022-12-24T17:10:40.476Z,12.96
2022-12-24T17:13:07.475Z,12.97
2022-12-24T17:15:34.381Z,12.95
2022-12-24T17:18:01.327Z,12.95
2022-12-24T17:20:28.289Z,12.95
2022-12-24T17:22:55.192Z,12.95
2022-12-24T17:25:22.157Z,12.97
2022-12-24T17:27:49.028Z,12.97
2022-12-24T17:30:16.569Z,12.94
2022-12-24T17:32:43.695Z,12.96
2022-12-24T17:35:10.921Z,12.96
2022-12-24T17:37:37.975Z,12.97
2022-12-24T17:40:05.462Z,12.95
2022-12-24T17:42:32.372Z,12.97
2022-12-24T17:44:59.258Z,12.98
2022-12-24T17:47:26.131Z,13.00
2022-12-24T17:49:53.057Z,13.00
2022-12-24T17:52:20.035Z,13.02
2022-12-24T17:54:46.966Z,12.99
2022-12-24T17:57:14.010Z,13.01
2022-12-24T17:59:40.948Z,13.01
2022-12-24T18:02:09.818Z,13.00
2022-12-24T18:04:36.803Z,13.02
2022-12-24T18:07:03.818Z,13.03
2022-12-24T18:09:31.208Z,13.05
2022-12-24T18:11:58.084Z,13.05
2022-12-24T18:14:25.017Z,13.02
2022-12-24T18:16:51.978Z,13.04
2022-12-24T18:19:19.008Z,13.03
2022-12-24T18:21:45.912Z,13.02
2022-12-24T18:24:13.348Z,12.99
2022-12-24T18:26:40.488Z,13.00
2022-12-24T18:29:08.992Z,13.01
2022-12-24T18:31:36.765Z,13.00
2022-12-24T18:34:06.325Z,13.00
2022-12-24T18:36:33.510Z,13.00
2022-12-24T18:39:00.659Z,12.99
2022-12-24T18:41:29.887Z,13.00
2022-12-24T18:43:57.352Z,12.99
2022-12-24T18:46:27.189Z,13.00
2022-12-24T18:48:55.679Z,13.00
2022-12-24T18:51:24.387Z,12.98
2022-12-24T18:53:51.784Z,12.97
2022-12-24T18:56:21.124Z,12.98
2022-12-24T18:58:48.252Z,12.93
2022-12-24T19:01:24.216Z,12.94
2022-12-24T19:03:51.776Z,12.95
2022-12-24T19:06:19.744Z,12.94
2022-12-24T19:08:56.920Z,12.95
2022-12-24T19:11:25.628Z,12.91
2022-12-24T19:13:53.392Z,12.90
2022-12-24T19:16:20.971Z,12.90
2022-12-24T19:18:48.143Z,12.92
2022-12-24T19:21:15.883Z,12.91
2022-12-24T19:23:43.049Z,12.93
2022-12-24T19:26:11.480Z,12.89
2022-12-24T19:28:38.411Z,12.88
2022-12-24T19:31:10.346Z,12.88
2022-12-24T19:33:43.378Z,12.88
2022-12-24T19:36:13.158Z,12.84
2022-12-24T19:38:40.606Z,12.85
2022-12-24T19:41:15.484Z,12.85
2022-12-24T19:43:47.385Z,12.84
2022-12-24T19:46:17.746Z,12.83
2022-12-24T19:48:52.054Z,12.78
2022-12-24T19:51:20.084Z,12.75
2022-12-24T19:53:48.324Z,12.76
2022-12-24T19:56:19.820Z,12.73
2022-12-24T19:58:47.282Z,12.75
2022-12-24T20:01:17.098Z,12.73
2022-12-24T20:03:45.225Z,12.71
2022-12-24T20:06:13.490Z,12.69
2022-12-24T20:08:40.523Z,12.67
2022-12-24T20:11:09.516Z,12.67
2022-12-24T20:13:37.326Z,12.67
2022-12-24T20:16:06.282Z,12.66
2022-12-24T20:18:33.582Z,12.64
2022-12-24T20:21:02.120Z,12.62
2022-12-24T20:23:29.100Z,12.60
2022-12-24T20:26:01.754Z,12.61
2022-12-24T20:28:30.269Z,12.59
2022-12-24T20:30:57.210Z,12.57
2022-12-24T20:33:24.602Z,12.58
2022-12-24T20:35:51.695Z,12.56
2022-12-24T20:38:18.752Z,12.55
2022-12-24T20:40:46.608Z,12.54
2022-12-24T20:43:13.867Z,12.53
2022-12-24T20:45:41.367Z,12.52
2022-12-24T20:48:08.555Z,12.52
2022-12-24T20:50:35.437Z,12.51
2022-12-24T20:53:02.340Z,12.49
2022-12-24T20:55:29.215Z,12.49
2022-12-24T20:57:56.066Z,12.48
2022-12-24T21:00:23.104Z,12.45
2022-12-24T21:02:50.094Z,12.45
2022-12-24T21:05:17.067Z,12.44
2022-12-24T21:07:44.252Z,12.42
2022-12-24T21:10:13.301Z,12.45
2022-12-24T21:12:57.259Z,12.45
2022-12-24T21:15:33.073Z,12.44
2022-12-24T21:18:00.754Z,12.41
2022-12-24T21:20:31.593Z,12.40
2022-12-24T21:23:00.992Z,12.39
2022-12-24T21:25:28.697Z,12.43
2022-12-24T21:27:55.828Z,12.43
2022-12-24T21:30:23.504Z,12.43
2022-12-24T21:32:50.778Z,12.45
2022-12-24T21:35:18.065Z,12.47
2022-12-24T21:37:45.117Z,12.49
2022-12-24T21:40:12.597Z,12.49
2022-12-24T21:42:39.491Z,12.51
2022-12-24T21:45:07.553Z,12.49
2022-12-24T21:47:35.504Z,12.52
2022-12-24T21:50:21.537Z,12.52
2022-12-24T21:52:49.288Z,12.51
2022-12-24T21:55:16.224Z,12.54
2022-12-24T21:57:55.175Z,12.55
2022-12-24T22:00:22.162Z,12.52
2022-12-24T22:02:58.826Z,12.53
2022-12-24T22:05:26.625Z,12.54
2022-12-24T22:08:12.870Z,12.54
2022-12-24T22:10:58.950Z,12.53
2022-12-24T22:13:26.113Z,12.54
2022-12-24T22:15:54.266Z,12.58
2022-12-24T22:18:23.844Z,12.59
2022-12-24T22:20:51.296Z,12.59
2022-12-24T22:23:19.401Z,12.62
2022-12-24T22:25:46.396Z,12.60
2022-12-24T22:28:13.759Z,12.58
2022-12-24T22:30:42.576Z,12.58
2022-12-24T22:33:09.910Z,12.58
2022-12-24T22:35:40.531Z,12.56
2022-12-24T22:38:09.299Z,12.60
2022-12-24T22:40:36.480Z,12.60
2022-12-24T22:43:03.401Z,12.59
2022-12-24T22:45:30.425Z,12.57
2022-12-24T22:47:57.343Z,12.57
2022-12-24T22:50:24.268Z,12.56
2022-12-24T22:52:52.071Z,12.57
2022-12-24T22:55:19.005Z,12.58
2022-12-24T22:57:45.900Z,12.58
2022-12-24T23:00:36.559Z,12.59
2022-12-24T23:03:04.074Z,12.59
2022-12-24T23:05:31.102Z,12.60
2022-12-24T23:07:58.018Z,12.60
2022-12-24T23:10:25.065Z,12.57
2022-12-24T23:13:14.885Z,12.57
2022-12-24T23:15:42.229Z,12.57
2022-12-24T23:18:09.738Z,12.56
2022-12-24T23:20:41.272Z,12.54
2022-12-24T23:23:08.349Z,12.55
2022-12-24T23:25:35.420Z,12.56
2022-12-24T23:28:02.289Z,12.56
2022-12-24T23:30:29.321Z,12.56
2022-12-24T23:32:56.254Z,12.57
2022-12-24T23:35:23.243Z,12.57
2022-12-24T23:37:50.242Z,12.58
2022-12-24T23:40:17.176Z,12.59
2022-12-24T23:42:44.157Z,12.61
2022-12-24T23:45:11.420Z,12.63
2022-12-24T23:47:38.357Z,12.62
2022-12-24T23:50:06.780Z,12.62
2022-12-24T23:52:33.715Z,12.60
2022-12-24T23:55:00.643Z,12.62
2022-12-24T23:57:27.552Z,12.60
2022-12-24T23:59:54.469Z,12.59
